Time;durP1;ratioP1;P1;durP2;ratioP2;P2;SDS_P1;SDS_P2;PMS_P1;PMS_P2;Temp;Humidity;BMP_temperature;BMP_pressure;BME280_temperature;BME280_humidity;BME280_pressure;Samples;Min_cycle;Max_cycle;Signal;HPM_P1;HPM_P2
2023/01/19 00:02:35;;;;;;;;;;;;;;;7.15;80.18;98813.84;5411195;32;33750;-79
2023/01/19 00:05:37;;;;;;;;;;;;;;;7.02;79.76;98820.63;5417166;32;33086;-79
2023/01/19 00:08:39;;;;;;;;;;;;;;;7.02;80.85;98821.47;5424186;32;33829;-79
2023/01/19 00:11:41;;;;;;;;;;;;;;;6.84;81.25;98817.13;5409672;32;32767;-79
2023/01/19 00:14:43;;;;;;;;;;;;;;;7.35;76.91;98805.00;5402813;32;34183;-87
2023/01/19 00:17:45;;;;;;;;;;;;;;;7.49;77.15;98799.06;5417836;32;34346;-87
2023/01/19 00:20:47;;;;;;;;;;;;;;;7.62;78.36;98805.34;5424221;32;45254;-91
2023/01/19 00:23:51;;;;;;;;;;;;;;;6.67;80.99;98819.72;5425655;32;33798;-91
2023/01/19 00:26:53;;;;;;;;;;;;;;;7.01;82.94;98816.28;5404014;32;34054;-90
2023/01/19 00:29:55;;;;;;;;;;;;;;;7.35;78.03;98810.25;5432143;32;35820;-91
2023/01/19 00:32:57;;;;;;;;;;;;;;;6.67;81.00;98811.87;5422016;32;34884;-80
2023/01/19 00:36:00;;;;;;;;;;;;;;;7.29;79.96;98816.62;5429152;32;34301;-91
2023/01/19 00:39:02;;;;;;;;;;;;;;;6.02;84.31;98819.25;5415509;32;32916;-79
2023/01/19 00:45:24;;;;;;;;;;;;;;;7.01;81.73;98809.28;5427867;32;44561;-88
2023/01/19 00:48:27;;;;;;;;;;;;;;;6.87;79.32;98814.34;5409932;32;33688;-87
2023/01/19 00:51:29;;;;;;;;;;;;;;;6.44;83.09;98821.66;5415275;32;34576;-79
2023/01/19 00:54:31;;;;;;;;;;;;;;;6.75;83.72;98813.19;5418080;32;33752;-91
2023/01/19 00:57:33;;;;;;;;;;;;;;;7.54;77.39;98800.53;5423985;32;34393;-80
2023/01/19 01:00:34;;;;;;;;;;;;;;;7.26;77.47;98802.84;5411507;32;34640;-80
2023/01/19 01:03:37;;;;;;;;;;;;;;;6.85;81.24;98802.31;5413430;32;34957;-78
2023/01/19 01:06:39;;;;;;;;;;;;;;;7.51;77.26;98799.81;5399675;32;33748;-86
2023/01/19 01:09:41;;;;;;;;;;;;;;;6.17;81.87;98800.28;5405374;32;33803;-91
2023/01/19 01:12:43;;;;;;;;;;;;;;;5.96;81.77;98806.50;5410748;32;35059;-79
2023/01/19 01:15:58;;;;;;;;;;;;;;;6.70;82.18;98802.16;5413815;32;34148;-79
2023/01/19 01:19:00;;;;;;;;;;;;;;;6.84;80.83;98795.41;5425396;32;33071;-80
2023/01/19 01:22:02;;;;;;;;;;;;;;;6.74;77.55;98787.16;5416594;32;34054;-91
2023/01/19 01:25:04;;;;;;;;;;;;;;;6.95;77.58;98791.31;5409312;32;32639;-91
2023/01/19 01:28:07;;;;;;;;;;;;;;;6.48;78.79;98794.47;5428428;32;33995;-78
2023/01/19 01:31:09;;;;;;;;;;;;;;;6.30;78.71;98805.78;5409706;32;33533;-93
2023/01/19 01:34:11;;;;;;;;;;;;;;;6.07;80.82;98808.62;5430916;32;34228;-87
2023/01/19 01:37:13;;;;;;;;;;;;;;;6.53;79.04;98804.72;5421723;32;33819;-78
2023/01/19 01:40:16;;;;;;;;;;;;;;;6.42;79.82;98801.75;5425207;32;33955;-90
2023/01/19 01:43:19;;;;;;;;;;;;;;;5.70;83.09;98794.59;5401007;32;44652;-80
2023/01/19 01:46:21;;;;;;;;;;;;;;;5.41;83.71;98799.34;5418532;32;34144;-92
2023/01/19 01:49:23;;;;;;;;;;;;;;;6.33;81.04;98799.59;5420516;32;33416;-80
2023/01/19 01:52:25;;;;;;;;;;;;;;;6.16;80.27;98806.44;5391207;32;33574;-86
2023/01/19 01:55:27;;;;;;;;;;;;;;;5.44;82.72;98803.56;5430438;32;33508;-91
2023/01/19 01:58:29;;;;;;;;;;;;;;;5.80;83.91;98808.94;5408987;32;32565;-91
2023/01/19 02:04:53;;;;;;;;;;;;;;;6.11;79.86;98817.97;5409764;32;44617;-90
2023/01/19 02:14:37;;;;;;;;;;;;;;;5.10;82.87;98845.84;5410770;32;34383;-88
2023/01/19 02:17:39;;;;;;;;;;;;;;;5.87;80.59;98826.00;5428076;32;34272;-91
2023/01/19 02:20:44;;;;;;;;;;;;;;;4.96;83.40;98803.87;5424384;32;34628;-79
2023/01/19 02:23:50;;;;;;;;;;;;;;;5.53;82.86;98771.88;5401379;32;32919;-89
2023/01/19 02:26:51;;;;;;;;;;;;;;;5.28;84.42;98777.34;5417751;32;44686;-79
2023/01/19 02:29:53;;;;;;;;;;;;;;;5.74;81.22;98806.59;5416352;32;34499;-80
2023/01/19 02:32:55;;;;;;;;;;;;;;;5.14;82.80;98821.34;5414677;32;33908;-80
2023/01/19 02:35:57;;;;;;;;;;;;;;;5.79;81.25;98843.72;5408611;32;34396;-79
2023/01/19 02:38:59;;;;;;;;;;;;;;;5.36;82.28;98842.97;5414248;32;34430;-79
2023/01/19 02:42:03;;;;;;;;;;;;;;;4.86;84.47;98825.09;5419966;32;34082;-90
2023/01/19 02:45:05;;;;;;;;;;;;;;;5.34;82.67;98805.69;5416610;32;34352;-90
2023/01/19 02:48:07;;;;;;;;;;;;;;;4.66;85.28;98817.25;5433066;32;33297;-79
2023/01/19 02:51:29;;;;;;;;;;;;;;;5.40;83.67;98800.22;5402785;32;33985;-89
2023/01/19 02:54:36;;;;;;;;;;;;;;;5.52;82.56;98782.37;5418224;32;34769;-80
2023/01/19 02:57:46;;;;;;;;;;;;;;;5.03;84.15;98782.75;5413834;32;33745;-90
2023/01/19 03:00:54;;;;;;;;;;;;;;;5.34;79.03;98797.88;5413315;32;45204;-79
2023/01/19 03:04:05;;;;;;;;;;;;;;;4.76;80.99;98818.53;5417529;32;33525;-79
2023/01/19 03:07:12;;;;;;;;;;;;;;;5.40;80.52;98820.22;5415446;32;33314;-79
2023/01/19 03:10:20;;;;;;;;;;;;;;;5.80;78.81;98823.72;5401575;32;34809;-86
2023/01/19 03:13:41;;;;;;;;;;;;;;;5.36;80.86;98808.25;5415455;32;45207;-90
2023/01/19 03:16:45;;;;;;;;;;;;;;;5.35;80.10;98811.78;5414298;32;33852;-87
2023/01/19 03:19:48;;;;;;;;;;;;;;;5.47;80.40;98831.22;5414186;32;44597;-79
2023/01/19 03:22:52;;;;;;;;;;;;;;;5.97;77.96;98842.94;5411129;32;34395;-90
2023/01/19 03:25:54;;;;;;;;;;;;;;;5.66;78.31;98853.81;5415046;32;34343;-90
2023/01/19 03:28:56;;;;;;;;;;;;;;;6.28;74.98;98857.19;5419576;32;33433;-79
2023/01/19 03:31:58;;;;;;;;;;;;;;;5.14;78.98;98835.19;5425760;32;33789;-80
2023/01/19 03:35:01;;;;;;;;;;;;;;;4.64;83.00;98821.66;5412873;32;35094;-91
2023/01/19 03:38:04;;;;;;;;;;;;;;;4.85;83.08;98812.97;5405270;32;35771;-80
2023/01/19 03:41:10;;;;;;;;;;;;;;;4.95;82.07;98794.38;5427908;32;33612;-79
2023/01/19 03:44:15;;;;;;;;;;;;;;;4.70;84.53;98765.91;5410774;32;33783;-92
2023/01/19 03:47:17;;;;;;;;;;;;;;;5.27;81.14;98753.94;5417546;32;45640;-80
2023/01/19 03:50:29;;;;;;;;;;;;;;;5.82;78.08;98765.38;5395903;32;33297;-92
2023/01/19 03:53:31;;;;;;;;;;;;;;;5.53;78.50;98773.63;5389762;32;33548;-90
2023/01/19 03:56:33;;;;;;;;;;;;;;;4.80;81.17;98781.09;5421704;32;34712;-91
2023/01/19 03:59:35;;;;;;;;;;;;;;;5.65;79.26;98789.59;5415176;32;33776;-80
2023/01/19 04:02:37;;;;;;;;;;;;;;;4.76;82.64;98789.06;5418860;32;34367;-79
2023/01/19 04:05:39;;;;;;;;;;;;;;;4.47;82.87;98824.91;5394648;32;33865;-79
2023/01/19 04:08:41;;;;;;;;;;;;;;;5.14;81.80;98827.37;5407016;32;33413;-78
2023/01/19 04:11:43;;;;;;;;;;;;;;;5.24;80.30;98816.59;5411326;32;34677;-90
2023/01/19 04:14:45;;;;;;;;;;;;;;;5.26;77.77;98797.37;5415516;32;33308;-91
2023/01/19 04:17:47;;;;;;;;;;;;;;;5.47;77.94;98828.63;5422904;32;44770;-89
2023/01/19 04:20:49;;;;;;;;;;;;;;;5.90;76.43;98812.78;5408890;32;33744;-79
2023/01/19 04:23:52;;;;;;;;;;;;;;;5.77;75.88;98824.69;5419351;32;33187;-89
2023/01/19 04:26:54;;;;;;;;;;;;;;;5.46;77.19;98822.56;5412477;32;34414;-80
2023/01/19 04:29:55;;;;;;;;;;;;;;;5.04;79.11;98812.22;5417443;32;33040;-88
2023/01/19 04:32:58;;;;;;;;;;;;;;;4.61;79.34;98832.19;5421532;32;34382;-79
2023/01/19 04:36:00;;;;;;;;;;;;;;;5.18;77.23;98811.66;5404253;32;33999;-78
2023/01/19 04:39:03;;;;;;;;;;;;;;;4.89;79.31;98806.75;5425301;32;34106;-79
2023/01/19 04:42:06;;;;;;;;;;;;;;;4.94;77.66;98809.16;5414509;32;33686;-79
2023/01/19 04:45:08;;;;;;;;;;;;;;;4.39;78.86;98802.72;5420331;32;33161;-90
2023/01/19 04:48:11;;;;;;;;;;;;;;;4.40;78.56;98800.06;5417338;32;33712;-80
2023/01/19 04:51:13;;;;;;;;;;;;;;;5.33;76.04;98788.38;5397625;32;33251;-80
2023/01/19 04:54:15;;;;;;;;;;;;;;;4.87;76.86;98792.09;5397895;32;34151;-80
2023/01/19 04:57:17;;;;;;;;;;;;;;;4.01;79.05;98797.25;5416207;32;44423;-80
2023/01/19 05:00:19;;;;;;;;;;;;;;;4.50;78.21;98811.78;5427331;32;33951;-78
2023/01/19 05:03:21;;;;;;;;;;;;;;;4.78;77.19;98797.69;5422806;32;34109;-94
2023/01/19 05:06:26;;;;;;;;;;;;;;;4.84;75.52;98821.72;5431426;32;34026;-92
2023/01/19 05:09:28;;;;;;;;;;;;;;;3.96;79.97;98838.16;5398777;32;33467;-92
2023/01/19 05:12:30;;;;;;;;;;;;;;;4.94;76.03;98853.41;5405603;32;33588;-90
2023/01/19 05:15:32;;;;;;;;;;;;;;;4.61;77.85;98842.59;5409064;32;33338;-79
2023/01/19 05:18:35;;;;;;;;;;;;;;;4.85;75.69;98822.56;5417353;32;33771;-88
2023/01/19 05:21:38;;;;;;;;;;;;;;;5.28;75.45;98837.25;5410205;32;35060;-79
2023/01/19 05:24:39;;;;;;;;;;;;;;;5.24;75.16;98856.50;5423215;32;33843;-92
2023/01/19 05:27:42;;;;;;;;;;;;;;;5.42;74.73;98862.72;5427321;32;32721;-79
2023/01/19 05:30:44;;;;;;;;;;;;;;;5.08;76.88;98866.69;5405811;32;35303;-81
2023/01/19 05:33:47;;;;;;;;;;;;;;;5.19;74.61;98865.44;5418280;32;33817;-79
2023/01/19 05:36:49;;;;;;;;;;;;;;;5.32;75.32;98861.41;5396679;32;43622;-91
2023/01/19 05:39:51;;;;;;;;;;;;;;;5.28;75.35;98865.03;5399284;32;34320;-79
2023/01/19 05:42:53;;;;;;;;;;;;;;;5.61;74.15;98857.56;5416965;32;33755;-89
2023/01/19 05:45:55;;;;;;;;;;;;;;;5.61;72.83;98870.59;5414367;32;33885;-90
2023/01/19 05:49:00;;;;;;;;;;;;;;;4.94;75.33;98868.19;5431946;32;34362;-91
2023/01/19 05:52:02;;;;;;;;;;;;;;;5.47;74.57;98852.09;5399913;32;34754;-79
2023/01/19 05:55:04;;;;;;;;;;;;;;;4.97;76.05;98850.69;5418917;32;33852;-90
2023/01/19 05:58:07;;;;;;;;;;;;;;;5.60;73.69;98858.47;5400031;32;33615;-91
2023/01/19 06:01:09;;;;;;;;;;;;;;;5.19;75.01;98845.44;5397127;32;33318;-79
2023/01/19 06:04:11;;;;;;;;;;;;;;;5.12;74.21;98818.81;5414417;32;33933;-91
2023/01/19 06:07:13;;;;;;;;;;;;;;;5.13;74.37;98809.22;5419738;32;33981;-80
2023/01/19 06:10:15;;;;;;;;;;;;;;;5.26;72.77;98828.63;5422713;32;34167;-79
2023/01/19 06:13:17;;;;;;;;;;;;;;;5.02;74.72;98832.25;5409760;32;44741;-80
2023/01/19 06:16:19;;;;;;;;;;;;;;;5.21;72.29;98821.91;5411530;32;34136;-90
2023/01/19 06:19:21;;;;;;;;;;;;;;;5.19;72.94;98806.38;5426482;32;34817;-90
2023/01/19 06:22:23;;;;;;;;;;;;;;;5.39;72.02;98816.78;5384895;32;33724;-89
2023/01/19 06:25:25;;;;;;;;;;;;;;;4.93;74.20;98825.69;5418381;32;31835;-90
2023/01/19 06:28:27;;;;;;;;;;;;;;;5.53;72.78;98815.34;5414167;32;34640;-85
2023/01/19 06:31:29;;;;;;;;;;;;;;;5.14;73.17;98805.72;5420199;32;32748;-83
2023/01/19 06:34:31;;;;;;;;;;;;;;;5.06;74.65;98806.03;5408403;32;34696;-83
2023/01/19 06:37:34;;;;;;;;;;;;;;;5.61;73.39;98803.69;5417468;32;33811;-80
2023/01/19 06:40:36;;;;;;;;;;;;;;;5.15;74.98;98817.81;5398217;32;33556;-81
2023/01/19 06:43:38;;;;;;;;;;;;;;;4.98;75.10;98841.13;5393733;32;34198;-80
2023/01/19 06:46:40;;;;;;;;;;;;;;;5.52;73.53;98855.34;5406841;32;33292;-74
2023/01/19 06:49:42;;;;;;;;;;;;;;;5.58;72.94;98853.31;5405816;32;33241;-75
2023/01/19 06:52:44;;;;;;;;;;;;;;;5.58;72.50;98855.09;5384176;32;33406;-76
2023/01/19 06:55:47;;;;;;;;;;;;;;;5.33;74.15;98852.66;5380797;32;45230;-76
2023/01/19 06:58:53;;;;;;;;;;;;;;;5.13;74.34;98841.31;5408232;32;33178;-72
2023/01/19 07:01:55;;;;;;;;;;;;;;;5.02;73.87;98856.53;5390785;32;33409;-80
2023/01/19 07:04:57;;;;;;;;;;;;;;;5.45;73.90;98844.34;5389678;32;33355;-71
2023/01/19 07:07:59;;;;;;;;;;;;;;;5.98;71.88;98844.63;5409251;32;34526;-72
2023/01/19 07:11:04;;;;;;;;;;;;;;;5.52;72.71;98837.09;5394405;32;33868;-77
2023/01/19 07:14:32;;;;;;;;;;;;;;;5.02;76.18;98825.28;5405274;32;34287;-80
2023/01/19 07:17:34;;;;;;;;;;;;;;;5.27;75.52;98825.13;5401567;32;33829;-79
2023/01/19 07:20:37;;;;;;;;;;;;;;;5.87;72.45;98819.94;5402521;32;34808;-76
2023/01/19 07:23:38;;;;;;;;;;;;;;;5.88;71.73;98837.25;5414382;32;31120;-81
2023/01/19 07:26:41;;;;;;;;;;;;;;;5.50;72.91;98858.03;5399308;32;34520;-80
2023/01/19 07:29:43;;;;;;;;;;;;;;;5.86;73.00;98859.94;5419777;32;33218;-76
2023/01/19 07:32:45;;;;;;;;;;;;;;;5.65;73.64;98861.72;5383990;32;33314;-83
2023/01/19 07:35:47;;;;;;;;;;;;;;;6.46;71.02;98860.72;5406389;32;44542;-82
2023/01/19 07:38:49;;;;;;;;;;;;;;;6.18;70.80;98848.09;5409869;32;32905;-80
2023/01/19 07:41:51;;;;;;;;;;;;;;;5.71;73.61;98853.62;5406228;32;32395;-82
2023/01/19 07:44:54;;;;;;;;;;;;;;;5.57;75.04;98859.44;5410507;32;33164;-82
2023/01/19 07:47:57;;;;;;;;;;;;;;;5.64;74.91;98862.62;5413511;32;34300;-80
2023/01/19 07:51:04;;;;;;;;;;;;;;;5.66;74.16;98858.19;5401036;32;33308;-81
2023/01/19 07:54:07;;;;;;;;;;;;;;;5.58;73.95;98871.56;5397753;32;33267;-81
2023/01/19 07:57:09;;;;;;;;;;;;;;;5.78;74.47;98872.47;5415612;32;32902;-82
2023/01/19 08:00:13;;;;;;;;;;;;;;;5.91;72.36;98879.72;5408016;32;33808;-80
2023/01/19 08:03:16;;;;;;;;;;;;;;;5.31;76.24;98884.00;5410569;32;33218;-80
2023/01/19 08:06:22;;;;;;;;;;;;;;;6.42;71.93;98890.47;5402202;32;44656;-79
2023/01/19 08:09:24;;;;;;;;;;;;;;;6.21;71.95;98876.66;5408356;32;34707;-81
2023/01/19 08:12:26;;;;;;;;;;;;;;;5.75;72.44;98873.47;5400049;32;33253;-80
2023/01/19 08:15:28;;;;;;;;;;;;;;;5.58;74.17;98870.72;5391585;32;35099;-84
2023/01/19 08:18:30;;;;;;;;;;;;;;;5.44;75.57;98864.34;5404847;32;33862;-84
2023/01/19 08:21:34;;;;;;;;;;;;;;;6.10;72.71;98852.81;5392138;32;33297;-82
2023/01/19 08:24:36;;;;;;;;;;;;;;;5.09;75.80;98831.12;5373822;32;33849;-84
2023/01/19 08:27:38;;;;;;;;;;;;;;;5.66;74.00;98859.03;5421488;32;35646;-85
2023/01/19 08:30:42;;;;;;;;;;;;;;;5.30;74.77;98861.47;5405672;32;35812;-84
2023/01/19 08:33:44;;;;;;;;;;;;;;;5.61;74.21;98860.19;5421848;32;33228;-84
2023/01/19 08:36:46;;;;;;;;;;;;;;;5.40;74.80;98869.72;5406641;32;36803;-81
2023/01/19 08:39:49;;;;;;;;;;;;;;;5.83;73.94;98876.56;5414560;32;34038;-78
2023/01/19 08:42:51;;;;;;;;;;;;;;;6.21;72.55;98874.06;5401140;32;33434;-79
2023/01/19 08:45:54;;;;;;;;;;;;;;;5.95;72.25;98870.84;5406346;32;37135;-80
2023/01/19 08:48:57;;;;;;;;;;;;;;;6.13;71.15;98860.50;5421733;32;33146;-84
2023/01/19 08:51:59;;;;;;;;;;;;;;;6.45;71.05;98869.47;5383120;32;33904;-79
2023/01/19 08:55:01;;;;;;;;;;;;;;;5.77;72.51;98883.81;5421065;32;33617;-81
2023/01/19 08:58:03;;;;;;;;;;;;;;;6.31;71.91;98872.72;5405122;32;34393;-80
2023/01/19 09:01:06;;;;;;;;;;;;;;;5.97;73.95;98878.59;5408302;32;33760;-82
2023/01/19 09:04:09;;;;;;;;;;;;;;;6.49;72.72;98877.06;5416364;32;34577;-84
2023/01/19 09:07:11;;;;;;;;;;;;;;;5.28;76.55;98876.34;5406759;32;33294;-81
2023/01/19 09:10:13;;;;;;;;;;;;;;;6.15;73.69;98862.12;5415755;32;33320;-83
2023/01/19 09:13:17;;;;;;;;;;;;;;;5.81;74.05;98867.97;5403187;32;36954;-84
2023/01/19 09:16:19;;;;;;;;;;;;;;;6.44;72.97;98862.53;5415496;32;44307;-83
2023/01/19 09:19:21;;;;;;;;;;;;;;;6.47;72.74;98855.44;5408016;32;34456;-79
2023/01/19 09:22:23;;;;;;;;;;;;;;;5.64;76.01;98870.47;5410876;32;36083;-73
2023/01/19 09:25:25;;;;;;;;;;;;;;;5.54;76.34;98890.00;5413144;32;34402;-73
2023/01/19 09:28:30;;;;;;;;;;;;;;;5.60;75.12;98877.56;5404691;32;32462;-77
2023/01/19 09:31:32;;;;;;;;;;;;;;;5.34;77.78;98876.03;5410841;32;35014;-76
2023/01/19 09:34:35;;;;;;;;;;;;;;;5.81;77.64;98862.75;5407105;32;33341;-77
2023/01/19 09:37:37;;;;;;;;;;;;;;;5.76;76.16;98875.16;5415865;32;33464;-75
2023/01/19 09:40:40;;;;;;;;;;;;;;;5.63;77.08;98887.84;5389727;32;34401;-75
2023/01/19 09:43:46;;;;;;;;;;;;;;;6.72;72.90;98877.78;5388347;32;35314;-77
2023/01/19 09:46:48;;;;;;;;;;;;;;;6.79;71.60;98876.56;5406559;32;44558;-76
2023/01/19 09:50:11;;;;;;;;;;;;;;;6.21;72.96;98868.84;5391595;32;33878;-77
2023/01/19 09:53:15;;;;;;;;;;;;;;;6.02;73.15;98861.00;5380521;32;32283;-76
2023/01/19 09:56:18;;;;;;;;;;;;;;;5.62;76.13;98882.72;5404915;32;44721;-78
2023/01/19 09:59:21;;;;;;;;;;;;;;;6.44;73.77;98876.47;5391760;32;33124;-91
2023/01/19 10:02:24;;;;;;;;;;;;;;;6.57;71.25;98878.47;5413167;32;33647;-80
2023/01/19 10:05:29;;;;;;;;;;;;;;;6.04;73.07;98889.59;5385488;32;32988;-84
2023/01/19 10:08:43;;;;;;;;;;;;;;;6.15;74.20;98883.00;5420343;32;33846;-80
2023/01/19 10:11:47;;;;;;;;;;;;;;;6.72;71.25;98883.84;5393715;32;32607;-82
2023/01/19 10:15:00;;;;;;;;;;;;;;;7.12;69.81;98891.53;5416470;32;45319;-84
2023/01/19 10:18:02;;;;;;;;;;;;;;;7.22;70.39;98887.56;5396564;32;33240;-82
2023/01/19 10:21:10;;;;;;;;;;;;;;;7.36;69.21;98886.88;5391695;32;33393;-73
2023/01/19 10:24:33;;;;;;;;;;;;;;;6.95;70.82;98903.63;5408204;32;34530;-73
2023/01/19 10:27:36;;;;;;;;;;;;;;;7.11;69.75;98900.28;5405063;32;34577;-75
2023/01/19 10:30:41;;;;;;;;;;;;;;;6.72;71.24;98899.50;5414870;32;31925;-75
2023/01/19 10:33:43;;;;;;;;;;;;;;;7.00;69.00;98893.81;5399978;32;33187;-81
2023/01/19 10:36:46;;;;;;;;;;;;;;;6.30;71.75;98899.72;5403727;32;33447;-84
2023/01/19 10:39:51;;;;;;;;;;;;;;;6.49;71.42;98894.50;5396741;32;44435;-83
2023/01/19 10:42:54;;;;;;;;;;;;;;;6.78;70.80;98906.22;5398836;32;33442;-88
2023/01/19 10:45:56;;;;;;;;;;;;;;;6.57;71.35;98909.81;5395383;32;33058;-74
2023/01/19 10:48:58;;;;;;;;;;;;;;;7.13;69.23;98914.13;5410018;32;33527;-65
2023/01/19 10:52:00;;;;;;;;;;;;;;;6.77;69.51;98907.12;5398114;32;34390;-72
2023/01/19 10:55:02;;;;;;;;;;;;;;;6.31;72.01;98911.00;5408053;32;33142;-69
2023/01/19 10:58:05;;;;;;;;;;;;;;;6.80;70.06;98917.44;5397766;32;33020;-72
2023/01/19 11:01:13;;;;;;;;;;;;;;;5.95;72.69;98923.00;5401534;32;33175;-77
2023/01/19 11:04:20;;;;;;;;;;;;;;;6.27;72.13;98922.50;5406676;32;33207;-71
2023/01/19 11:07:22;;;;;;;;;;;;;;;5.69;74.27;98923.25;5415141;32;46195;-73
2023/01/19 11:10:25;;;;;;;;;;;;;;;6.46;72.21;98923.38;5385436;32;36319;-72
2023/01/19 11:13:27;;;;;;;;;;;;;;;6.95;70.47;98921.91;5395845;32;33040;-72
2023/01/19 11:16:30;;;;;;;;;;;;;;;6.27;69.74;98923.34;5411719;32;34935;-71
2023/01/19 11:19:31;;;;;;;;;;;;;;;5.70;73.18;98922.34;5403722;32;34218;-70
2023/01/19 11:22:33;;;;;;;;;;;;;;;6.27;70.94;98915.53;5418622;32;33288;-73
2023/01/19 11:25:36;;;;;;;;;;;;;;;6.40;70.34;98918.44;5401960;32;33301;-75
2023/01/19 11:28:42;;;;;;;;;;;;;;;5.94;71.44;98910.87;5399952;32;33477;-73
2023/01/19 11:31:46;;;;;;;;;;;;;;;5.58;72.64;98913.25;5401918;32;33272;-75
2023/01/19 11:34:48;;;;;;;;;;;;;;;5.57;73.20;98915.94;5382481;32;44290;-72
2023/01/19 11:37:51;;;;;;;;;;;;;;;5.37;72.53;98922.84;5416605;32;33059;-74
2023/01/19 11:40:54;;;;;;;;;;;;;;;5.69;72.12;98920.63;5404196;32;33180;-71
2023/01/19 11:44:01;;;;;;;;;;;;;;;5.54;73.01;98929.97;5394878;32;33400;-69
2023/01/19 11:47:05;;;;;;;;;;;;;;;5.50;73.39;98933.59;5395742;32;34849;-74
2023/01/19 11:50:14;;;;;;;;;;;;;;;5.71;72.60;98929.22;5399189;32;33325;-73
2023/01/19 11:53:23;;;;;;;;;;;;;;;5.33;74.94;98933.44;5382359;32;46254;-72
2023/01/19 11:56:27;;;;;;;;;;;;;;;5.70;73.47;98931.00;5402226;32;32063;-69
2023/01/19 11:59:29;;;;;;;;;;;;;;;6.18;73.14;98934.19;5400017;32;33576;-73
2023/01/19 12:02:43;;;;;;;;;;;;;;;6.47;68.48;98930.28;5404559;32;34518;-67
2023/01/19 12:05:46;;;;;;;;;;;;;;;5.93;72.38;98950.06;5409868;32;33646;-70
2023/01/19 12:08:51;;;;;;;;;;;;;;;5.43;74.18;98956.44;5405492;32;44496;-71
2023/01/19 12:11:55;;;;;;;;;;;;;;;5.43;74.24;98953.84;5405801;32;33317;-70
2023/01/19 12:14:58;;;;;;;;;;;;;;;6.33;71.78;98953.53;5405563;32;34996;-71
2023/01/19 12:18:00;;;;;;;;;;;;;;;5.75;71.87;98969.91;5407841;32;33395;-75
2023/01/19 12:21:03;;;;;;;;;;;;;;;5.78;71.04;98967.16;5410864;32;34804;-70
2023/01/19 12:24:11;;;;;;;;;;;;;;;5.56;74.18;98972.44;5405798;32;33110;-75
2023/01/19 12:27:26;;;;;;;;;;;;;;;6.48;70.97;98968.50;5419295;32;34744;-72
2023/01/19 12:30:28;;;;;;;;;;;;;;;5.47;72.45;98984.97;5395850;32;33520;-69
2023/01/19 12:33:37;;;;;;;;;;;;;;;6.09;71.70;98965.91;5397287;32;33385;-79
2023/01/19 12:36:39;;;;;;;;;;;;;;;5.41;73.46;98989.56;5401058;32;31363;-75
2023/01/19 12:39:46;;;;;;;;;;;;;;;5.79;73.93;98994.09;5406398;32;34703;-75
2023/01/19 12:42:52;;;;;;;;;;;;;;;6.12;71.81;98989.25;5417069;32;44590;-79
2023/01/19 12:45:54;;;;;;;;;;;;;;;5.25;73.94;98992.81;5377563;32;31711;-75
2023/01/19 12:49:20;;;;;;;;;;;;;;;4.72;76.73;98995.72;5402272;32;33385;-75
2023/01/19 12:52:22;;;;;;;;;;;;;;;5.14;74.97;99008.84;5366984;32;42266;-73
2023/01/19 12:55:26;;;;;;;;;;;;;;;4.48;75.66;99015.69;5403605;32;33368;-85
2023/01/19 12:58:28;;;;;;;;;;;;;;;5.04;75.09;99015.34;5406761;32;34035;-77
2023/01/19 13:01:30;;;;;;;;;;;;;;;4.56;76.80;99005.84;5392432;32;32811;-84
2023/01/19 13:04:37;;;;;;;;;;;;;;;5.04;76.07;99015.34;5415266;32;35496;-87
2023/01/19 13:07:59;;;;;;;;;;;;;;;4.75;75.68;99012.06;5407806;32;33354;-73
2023/01/19 13:11:04;;;;;;;;;;;;;;;5.58;75.13;99024.50;5405645;32;35092;-75
2023/01/19 13:14:27;;;;;;;;;;;;;;;6.35;71.65;99035.22;5410903;32;33247;-76
2023/01/19 13:17:33;;;;;;;;;;;;;;;6.30;72.01;99040.63;5411346;32;33120;-77
2023/01/19 13:20:42;;;;;;;;;;;;;;;5.74;71.63;99064.69;5415932;32;32286;-78
2023/01/19 13:23:50;;;;;;;;;;;;;;;6.12;70.78;99078.78;5403172;32;33105;-72
2023/01/19 13:26:54;;;;;;;;;;;;;;;5.79;72.14;99069.69;5404532;32;44767;-74
2023/01/19 13:29:56;;;;;;;;;;;;;;;6.40;70.28;99077.63;5418659;32;33253;-72
2023/01/19 13:33:02;;;;;;;;;;;;;;;5.48;72.91;99085.72;5404896;32;34267;-78
2023/01/19 13:36:04;;;;;;;;;;;;;;;5.65;73.44;99086.75;5400863;32;33370;-71
2023/01/19 13:39:10;;;;;;;;;;;;;;;5.69;71.77;99090.09;5375835;32;34883;-68
2023/01/19 13:42:13;;;;;;;;;;;;;;;5.69;71.50;99103.97;5402926;32;33205;-68
2023/01/19 13:45:15;;;;;;;;;;;;;;;5.33;73.10;99108.84;5416610;32;33611;-72
2023/01/19 13:48:21;;;;;;;;;;;;;;;5.32;73.52;99116.72;5404819;32;44743;-71
2023/01/19 13:51:23;;;;;;;;;;;;;;;5.35;72.96;99122.69;5377156;32;33375;-76
2023/01/19 13:54:25;;;;;;;;;;;;;;;5.16;73.96;99126.88;5397977;32;33247;-87
2023/01/19 13:57:28;;;;;;;;;;;;;;;4.99;74.23;99129.25;5395832;32;33153;-83
2023/01/19 14:00:30;;;;;;;;;;;;;;;5.61;72.53;99129.50;5405512;32;34272;-77
2023/01/19 14:03:32;;;;;;;;;;;;;;;5.14;73.12;99139.09;5391118;32;33308;-80
2023/01/19 14:06:38;;;;;;;;;;;;;;;4.82;74.94;99142.84;5408200;32;34518;-85
2023/01/19 14:10:08;;;;;;;;;;;;;;;5.03;75.55;99144.72;5390595;32;44687;-86
2023/01/19 14:13:20;;;;;;;;;;;;;;;5.38;72.63;99137.31;5416868;32;33270;-81
2023/01/19 14:16:23;;;;;;;;;;;;;;;4.37;76.02;99137.47;5397000;32;44565;-78
2023/01/19 14:19:28;;;;;;;;;;;;;;;4.22;77.11;99144.06;5392419;32;31987;-88
2023/01/19 14:22:40;;;;;;;;;;;;;;;4.40;77.06;99124.37;5422686;32;34319;-75
2023/01/19 14:25:43;;;;;;;;;;;;;;;5.14;75.46;99116.50;5394559;32;33162;-75
2023/01/19 14:28:46;;;;;;;;;;;;;;;4.87;74.85;99115.75;5422665;32;33302;-75
2023/01/19 14:31:48;;;;;;;;;;;;;;;4.99;73.54;99130.09;5410209;32;45283;-76
2023/01/19 14:34:50;;;;;;;;;;;;;;;4.89;73.04;99126.09;5400680;32;33432;-73
2023/01/19 14:37:52;;;;;;;;;;;;;;;5.03;73.50;99143.84;5398080;32;33756;-71
2023/01/19 14:40:54;;;;;;;;;;;;;;;4.84;72.54;99141.91;5404632;32;33254;-73
2023/01/19 14:43:56;;;;;;;;;;;;;;;4.66;73.42;99150.34;5416301;32;34273;-71
2023/01/19 14:46:58;;;;;;;;;;;;;;;4.85;73.93;99151.41;5404913;32;34554;-74
2023/01/19 14:50:06;;;;;;;;;;;;;;;4.89;71.96;99158.22;5404748;32;33792;-76
2023/01/19 14:53:20;;;;;;;;;;;;;;;4.91;71.88;99162.53;5395684;32;34599;-87
2023/01/19 14:56:26;;;;;;;;;;;;;;;4.44;74.50;99180.59;5405467;32;44517;-82
2023/01/19 14:59:28;;;;;;;;;;;;;;;4.40;73.97;99184.22;5413288;32;33085;-80
2023/01/19 15:02:30;;;;;;;;;;;;;;;4.71;74.10;99191.84;5385811;32;33156;-77
2023/01/19 15:05:32;;;;;;;;;;;;;;;4.21;74.89;99203.03;5410174;32;35930;-79
2023/01/19 15:08:36;;;;;;;;;;;;;;;4.64;73.78;99219.84;5394879;32;34860;-73
2023/01/19 15:11:38;;;;;;;;;;;;;;;4.93;71.90;99236.22;5408907;32;33308;-80
2023/01/19 15:14:40;;;;;;;;;;;;;;;4.34;72.57;99255.50;5393724;32;33185;-79
2023/01/19 15:17:42;;;;;;;;;;;;;;;4.39;74.16;99260.56;5394741;32;35077;-74
2023/01/19 15:20:44;;;;;;;;;;;;;;;4.46;73.05;99246.47;5410129;32;33277;-74
2023/01/19 15:23:46;;;;;;;;;;;;;;;4.39;72.84;99234.56;5402480;32;31569;-74
2023/01/19 15:26:48;;;;;;;;;;;;;;;4.70;73.27;99232.66;5407490;32;44348;-75
2023/01/19 15:29:50;;;;;;;;;;;;;;;4.43;73.64;99210.13;5397826;32;33218;-74
2023/01/19 15:32:52;;;;;;;;;;;;;;;4.36;74.18;99232.88;5409568;32;34591;-76
2023/01/19 15:35:54;;;;;;;;;;;;;;;4.66;73.28;99230.19;5398815;32;34144;-82
2023/01/19 15:38:56;;;;;;;;;;;;;;;4.96;72.93;99246.50;5394759;32;33243;-80
2023/01/19 15:41:58;;;;;;;;;;;;;;;4.23;74.17;99249.78;5407255;32;33822;-74
2023/01/19 15:45:00;;;;;;;;;;;;;;;4.15;74.69;99256.97;5386422;32;33192;-75
2023/01/19 15:48:03;;;;;;;;;;;;;;;3.99;77.19;99260.06;5417570;32;34010;-76
2023/01/19 15:51:10;;;;;;;;;;;;;;;4.58;73.24;99243.47;5376184;32;33218;-80
2023/01/19 15:54:15;;;;;;;;;;;;;;;3.72;75.12;99259.09;5381657;32;33194;-74
2023/01/19 15:57:17;;;;;;;;;;;;;;;4.24;74.46;99274.88;5401789;32;43123;-80
2023/01/19 16:00:19;;;;;;;;;;;;;;;4.15;74.27;99267.38;5404339;32;33950;-76
2023/01/19 16:03:23;;;;;;;;;;;;;;;3.68;76.07;99277.44;5416370;32;36527;-80
2023/01/19 16:06:25;;;;;;;;;;;;;;;3.91;75.32;99294.97;5401095;32;33529;-74
2023/01/19 16:09:27;;;;;;;;;;;;;;;4.15;74.97;99320.25;5411623;32;33917;-75
2023/01/19 16:12:29;;;;;;;;;;;;;;;4.15;73.89;99309.84;5402137;32;32963;-75
2023/01/19 16:15:33;;;;;;;;;;;;;;;3.84;75.66;99306.44;5404692;32;34358;-75
2023/01/19 16:18:35;;;;;;;;;;;;;;;4.67;71.38;99313.41;5413514;32;33963;-75
2023/01/19 16:21:37;;;;;;;;;;;;;;;4.42;73.38;99326.34;5402960;32;33883;-80
2023/01/19 16:24:38;;;;;;;;;;;;;;;4.19;73.16;99347.88;5409242;32;34532;-74